• Join FlightAware (Why Join?)
  • Login
  • US Flag 
01:28AM EDT


 

Airport Tracker/Info


-or-


 

Live Flight TrackerFlight Track Log ✈ N789EX ✈ 07-Mar-2014 ✈ KMWH - KBFI

Flight Track Log - Related Links

Times and Time Zones

All times are in EST time to prevent confusion due to time zone crossing. See the N789EX flight status page for this flight to view local times or setup timezone preferences in your user account.

Time Position Orientation Groundspeed Altitude Reporting Facility
EST Latitude Longitude Course Direction KTS MPH feet Rate Location/Type
07:12PM 47.1328 -119.3028 174° South 218 251 6,200  Level Seattle Center
07:13PM 47.0581 -119.2833 170° South 269 310 9,800 3,000 Climbing Seattle Center
07:14PM 46.9689 -119.2597 170° South 338 389 12,400 3,000 Climbing Seattle Center
07:15PM 46.8647 -119.2328 170° South 381 438 15,900 3,000 Climbing Seattle Center
07:16PM 46.7544 -119.2053 170° South 405 466 18,500 2,700 Climbing Seattle Center
07:17PM 46.6272 -119.1742 170° South 423 487 21,500 2,700 Climbing Seattle Center
07:18PM 46.5019 -119.1428 170° South 447 514 24,000 2,340 Climbing Seattle Center
07:19PM 46.3678 -119.1075 170° South 483 556 26,300 2,160 Climbing Seattle Center
07:20PM 46.2297 -119.0719 170° South 501 577 28,500 1,920 Climbing Seattle Center
07:21PM 46.0858 -119.0489 174° South 525 604 30,300 1,620 Climbing Seattle Center
07:22PM 46.0022 -119.1781 227° Southwest 463 533 31,900 780 Climbing Seattle Center
07:23PM 46.0672 -119.3042 307° West 434 499 32,000 120 Climbing Seattle Center
07:29PM 46.7474 -119.6530 341° North 430 495 33,000 120 Climbing FlightAware ADS-B
07:30PM 46.8249 -119.6880 342° North 431 496 33,000  Level FlightAware ADS-B
07:30PM 46.8906 -119.7180 343° North 443 510 33,000  Level FlightAware ADS-B
07:31PM 46.9494 -119.7450 342° North 447 514 33,000  Level FlightAware ADS-B
07:31PM 47.0086 -119.7730 342° North 449 517 33,000  Level FlightAware ADS-B
07:32PM 47.0685 -119.8010 342° North 452 520 33,000  Level FlightAware ADS-B
07:32PM 47.1298 -119.8290 342° North 451 519 33,000  Level FlightAware ADS-B
07:33PM 47.1901 -119.8570 342° North 450 518 33,000  Level FlightAware ADS-B
07:33PM 47.2503 -119.8860 342° North 449 517 33,000  Level FlightAware ADS-B
07:34PM 47.2980 -119.9090 340° North 448 516 33,000  Level FlightAware ADS-B
07:34PM 47.3108 -119.9170 334° Northwest 447 514 33,000  Level FlightAware ADS-B
07:34PM 47.3258 -119.9300 328° Northwest 446 513 33,000  Level FlightAware ADS-B
07:34PM 47.3368 -119.9410 322° Northwest 445 512 33,000  Level FlightAware ADS-B
07:34PM 47.3443 -119.9510 319° Northwest 445 512 33,000  Level FlightAware ADS-B
07:34PM 47.3507 -119.9600 314° West 445 512 33,000  Level FlightAware ADS-B
07:34PM 47.3597 -119.9760 307° West 445 512 33,000  Level FlightAware ADS-B
07:35PM 47.3665 -119.9910 301° West 447 514 33,000  Level FlightAware ADS-B
07:35PM 47.3939 -120.0750 295° West 449 517 33,000  Level FlightAware ADS-B
07:36PM 47.4204 -120.1590 295° West 455 524 33,000 -240 Level FlightAware ADS-B
07:36PM 47.4470 -120.2440 295° West 447 514 32,800 -1,500 Descending FlightAware ADS-B
07:37PM 47.4723 -120.3270 294° West 433 498 31,500 -2,640 Descending FlightAware ADS-B
07:37PM 47.4968 -120.4070 294° West 420 483 30,200 -2,640 Descending FlightAware ADS-B
07:38PM 47.5208 -120.4850 294° West 415 478 28,900 -2,460 Descending FlightAware ADS-B
07:38PM 47.5445 -120.5620 294° West 414 476 27,700 -2,460 Descending FlightAware ADS-B
07:39PM 47.5685 -120.6410 294° West 420 483 26,400 -2,640 Descending FlightAware ADS-B
07:39PM 47.5927 -120.7200 294° West 421 484 25,100 -2,640 Descending FlightAware ADS-B
07:39PM 47.5996 -120.7427 294° West 420 483 24,600 -2,640 Descending FlightAware ADS-B (CYWH)
07:40PM 47.6167 -120.7990 294° West 418 481 23,800 -2,640 Descending FlightAware ADS-B
07:40PM 47.6322 -120.8499 294° West 415 478 22,900 -2,640 Descending FlightAware ADS-B (CYWH)
07:40PM 47.6405 -120.8770 294° West 416 479 22,500 -2,580 Descending FlightAware ADS-B
07:41PM 47.6640 -120.9550 294° West 414 476 21,200 -2,700 Descending FlightAware ADS-B
07:41PM 47.6874 -121.0330 294° West 404 465 19,800 -2,580 Descending FlightAware ADS-B
07:42PM 47.7101 -121.1080 294° West 403 464 18,600 -2,820 Descending FlightAware ADS-B
07:42PM 47.7329 -121.1840 294° West 407 468 17,000 -2,880 Descending FlightAware ADS-B
07:43PM 47.7561 -121.2620 294° West 399 459 15,700 -2,460 Descending FlightAware ADS-B
07:43PM 47.7784 -121.3370 294° West 389 448 14,500 -2,520 Descending FlightAware ADS-B
07:44PM 47.8000 -121.4100 294° West 380 437 13,200 -2,400 Descending FlightAware ADS-B
07:44PM 47.8207 -121.4800 294° West 368 423 12,100 -1,800 Descending FlightAware ADS-B
07:45PM 47.8412 -121.5490 294° West 348 400 11,400 -1,080 Descending FlightAware ADS-B
07:45PM 47.8545 -121.5950 293° West 326 375 11,200 -720 Descending FlightAware ADS-B
07:45PM 47.8569 -121.6040 290° West 321 369 11,100 -1,380 Descending FlightAware ADS-B
07:45PM 47.8587 -121.6130 285° West 318 366 11,000 -1,380 Descending FlightAware ADS-B
07:45PM 47.8599 -121.6240 277° West 314 361 10,900 -1,380 Descending FlightAware ADS-B
07:45PM 47.8600 -121.6330 270° West 311 358 10,800 -1,200 Descending FlightAware ADS-B
07:45PM 47.8593 -121.6440 263° West 307 353 10,700 -1,620 Descending FlightAware ADS-B
07:46PM 47.8526 -121.6920 257° West 285 328 10,000 -1,740 Descending FlightAware ADS-B
07:46PM 47.8483 -121.7210 257° West 274 315 9,600 -1,620 Descending FlightAware ADS-B
07:46PM 47.8440 -121.7480 257° West 271 312 9,200 -1,560 Descending FlightAware ADS-B
07:47PM 47.8398 -121.7750 257° West 271 312 8,800 -1,560 Descending FlightAware ADS-B
07:47PM 47.8357 -121.8030 257° West 271 312 8,400 -1,500 Descending FlightAware ADS-B
07:47PM 47.8321 -121.8270 258° West 270 311 8,100 -1,320 Descending FlightAware ADS-B
07:47PM 47.8281 -121.8540 258° West 267 307 7,800 -1,440 Descending FlightAware ADS-B
07:47PM 47.8243 -121.8820 258° West 264 304 7,400 -1,440 Descending FlightAware ADS-B
07:48PM 47.8207 -121.9080 259° West 263 303 7,100 -1,440 Descending FlightAware ADS-B
07:48PM 47.8185 -121.9250 259° West 262 302 6,800 -1,680 Descending FlightAware ADS-B
07:48PM 47.8152 -121.9520 260° West 263 303 6,400 -1,440 Descending FlightAware ADS-B
07:48PM 47.8118 -121.9780 259° West 261 300 6,100 -840 Descending FlightAware ADS-B
07:49PM 47.8083 -122.0050 259° West 252 290 6,000 -780 Descending FlightAware ADS-B
07:49PM 47.8050 -122.0310 260° West 249 287 5,700 -1,380 Descending FlightAware ADS-B
07:49PM 47.8018 -122.0560 259° West 249 287 5,300 -1,440 Descending FlightAware ADS-B
07:49PM 47.7985 -122.0820 259° West 248 285 5,000 -1,200 Descending FlightAware ADS-B
07:50PM 47.7954 -122.1070 260° West 246 283 4,700 -1,200 Descending FlightAware ADS-B
07:50PM 47.7922 -122.1320 260° West 243 280 4,400 -1,200 Descending FlightAware ADS-B
07:50PM 47.7892 -122.1570 260° West 241 277 4,100 -1,440 Descending FlightAware ADS-B
07:50PM 47.7869 -122.1750 259° West 241 277 3,800 -1,380 Descending FlightAware ADS-B
07:51PM 47.7847 -122.1930 259° West 241 277 3,600 -1,320 Descending FlightAware ADS-B
07:51PM 47.7821 -122.2130 259° West 242 278 3,300 -1,440 Descending FlightAware ADS-B
07:51PM 47.7772 -122.2490 259° West 240 276 2,800 -1,260 Descending FlightAware ADS-B
07:52PM 47.7692 -122.3120 259° West 239 275 2,000 -900 Descending FlightAware ADS-B
07:52PM 47.7607 -122.3480 248° West 236 272 1,900 -120 Descending FlightAware ADS-B
07:53PM 47.7369 -122.3860 237° Southwest 220 253 1,900  Level FlightAware ADS-B
07:53PM 47.7287 -122.3920 210° Southwest 197 227 1,900  Level FlightAware ADS-B
07:54PM 47.7038 -122.4110 210° Southwest 197 227 1,900  Level FlightAware ADS-B
07:54PM 47.6996 -122.4120 195° South 183 211 1,900 360 Level FlightAware ADS-B
07:54PM 47.6904 -122.4130 185° South 185 213 2,000  Climbing FlightAware ADS-B
07:54PM 47.6794 -122.4130 178° South 187 215 1,900 -180 Descending FlightAware ADS-B
07:54PM 47.6592 -122.4100 171° South 171 197 1,900  Level FlightAware ADS-B
07:54PM 47.6554 -122.4080 161° South 173 199 1,900  Level FlightAware ADS-B
07:55PM 47.6489 -122.4040 152° Southeast 172 198 1,900 240 Level FlightAware ADS-B
07:55PM 47.6400 -122.3960 150° Southeast 171 197 2,000 -240 Climbing FlightAware ADS-B
07:55PM 47.6292 -122.3870 150° Southeast 164 189 1,800 -840 Descending FlightAware ADS-B
07:55PM 47.6202 -122.3790 150° Southeast 154 177 1,600 -900 Descending FlightAware ADS-B
07:56PM 47.6081 -122.3680 150° Southeast 140 161 1,300 -840 Descending FlightAware ADS-B
07:56PM 47.5985 -122.3600 150° Southeast 137 158 1,100 -720 Descending FlightAware ADS-B
07:56PM 47.5880 -122.3510 150° Southeast 138 159 900 -540 Descending FlightAware ADS-B
07:57PM 47.5547 -122.3264 150° Southeast 137 158 400 -480 Descending Seattle Center
07:57PM 47.5556 -122.3250 48° Northeast 136 157 400 -300 Level Seattle Center
07:58PM 47.5236 -122.2967 149° Southeast 136 157 100 -300 Descending Seattle Center
08:00PM 47.5167 -122.3000 270° West  Level FlightAware Approximate